Time;durP1;ratioP1;P1;durP2;ratioP2;P2;SDS_P1;SDS_P2;PMS_P1;PMS_P2;Temp;Humidity;BMP_temperature;BMP_pressure;BME280_temperature;BME280_humidity;BME280_pressure;Samples;Min_cycle;Max_cycle;Signal;HPM_P1;HPM_P2
2021/09/06 00:00:29;;;;;;;13.10;11.10;;;17.40;99.90;;;;;;5056626;28;20536;-88
2021/09/06 00:02:55;;;;;;;14.97;11.80;;;17.30;99.90;;;;;;5057371;28;20478;-89
2021/09/06 00:05:23;;;;;;;16.70;12.63;;;17.30;99.90;;;;;;5054250;28;20444;-88
2021/09/06 00:07:51;;;;;;;12.60;11.40;;;17.30;99.90;;;;;;5046127;28;20451;-88
2021/09/06 00:10:37;;;;;;;15.83;11.40;;;17.30;99.90;;;;;;5039886;28;20443;-88
2021/09/06 00:13:06;;;;;;;14.73;11.70;;;17.20;99.90;;;;;;5038256;28;20472;-88
2021/09/06 00:15:33;;;;;;;17.20;12.10;;;17.10;99.90;;;;;;5045338;28;20441;-88
2021/09/06 00:18:00;;;;;;;13.23;11.63;;;17.10;99.90;;;;;;5053983;28;20469;-86
2021/09/06 00:20:28;;;;;;;13.40;12.03;;;17.10;99.90;;;;;;5053907;28;20434;-90
2021/09/06 00:22:56;;;;;;;14.83;10.70;;;17.00;99.90;;;;;;5047396;28;20554;-87
2021/09/06 00:25:24;;;;;;;15.50;10.60;;;17.00;99.90;;;;;;5055387;28;20445;-89
2021/09/06 00:27:51;;;;;;;12.23;10.50;;;17.00;99.90;;;;;;5048440;28;20449;-88
2021/09/06 00:30:18;;;;;;;13.73;11.60;;;17.00;99.90;;;;;;5037439;28;20461;-88
2021/09/06 00:32:45;;;;;;;13.60;12.03;;;17.00;99.90;;;;;;5036260;28;20481;-88
2021/09/06 00:35:12;;;;;;;13.63;11.23;;;16.90;99.90;;;;;;5036449;28;21003;-87
2021/09/06 00:37:39;;;;;;;15.40;12.20;;;16.90;99.90;;;;;;5035715;28;20464;-87
2021/09/06 00:40:09;;;;;;;20.03;14.93;;;16.80;99.90;;;;;;5040270;28;20465;-87
2021/09/06 00:42:35;;;;;;;14.30;11.63;;;16.90;99.90;;;;;;5035387;28;20475;-87
2021/09/06 00:45:02;;;;;;;14.00;12.50;;;16.80;99.90;;;;;;5035320;28;20455;-87
2021/09/06 00:47:29;;;;;;;13.33;11.77;;;16.80;99.90;;;;;;5037116;28;20457;-88
2021/09/06 00:49:56;;;;;;;17.63;12.07;;;16.80;99.90;;;;;;5035262;28;20445;-87
2021/09/06 00:52:23;;;;;;;15.30;12.27;;;16.80;99.90;;;;;;5036623;28;20495;-88
2021/09/06 00:54:50;;;;;;;12.50;11.30;;;16.80;99.90;;;;;;5037510;28;20456;-88
2021/09/06 00:57:18;;;;;;;16.20;11.50;;;16.80;99.90;;;;;;5048370;28;20433;-88
2021/09/06 00:59:45;;;;;;;15.50;11.50;;;16.80;99.90;;;;;;5042509;28;20477;-88
2021/09/06 01:02:12;;;;;;;14.53;11.33;;;16.80;99.90;;;;;;5034915;28;20461;-88
2021/09/06 01:04:39;;;;;;;20.10;12.30;;;16.70;99.90;;;;;;5033722;28;20444;-88
2021/09/06 01:07:06;;;;;;;19.00;10.73;;;16.70;99.90;;;;;;5034053;28;20453;-88
2021/09/06 01:09:32;;;;;;;15.83;13.20;;;16.60;99.90;;;;;;5037477;28;20458;-88
2021/09/06 01:12:00;;;;;;;16.17;12.30;;;16.60;99.90;;;;;;5038175;28;20427;-88
2021/09/06 01:14:28;;;;;;;17.30;13.00;;;16.50;99.90;;;;;;5054733;28;20460;-89
2021/09/06 01:16:55;;;;;;;19.37;12.70;;;16.50;99.90;;;;;;5056099;28;20463;-88
2021/09/06 01:19:22;;;;;;;18.40;13.17;;;16.60;99.90;;;;;;5037218;28;20488;-88
2021/09/06 01:21:49;;;;;;;23.37;11.80;;;16.60;99.90;;;;;;5043592;28;20437;-88
2021/09/06 01:24:17;;;;;;;17.53;12.63;;;16.50;99.90;;;;;;5038470;28;20458;-88
2021/09/06 01:26:45;;;;;;;18.43;10.83;;;16.50;99.90;;;;;;5041632;28;20457;-88
2021/09/06 01:29:13;;;;;;;20.43;11.63;;;16.40;99.90;;;;;;5038895;28;20814;-88
2021/09/06 01:31:40;;;;;;;19.07;13.77;;;16.40;99.90;;;;;;5036824;28;20472;-89
2021/09/06 01:34:10;;;;;;;26.37;12.97;;;16.30;99.90;;;;;;5036923;28;20481;-88
2021/09/06 01:36:37;;;;;;;25.67;13.57;;;16.30;99.90;;;;;;5042723;28;20437;-89
2021/09/06 01:39:05;;;;;;;17.70;11.00;;;16.20;99.90;;;;;;5045048;28;20499;-89
2021/09/06 01:41:32;;;;;;;17.10;13.37;;;16.30;99.90;;;;;;5037459;28;20445;-88
2021/09/06 01:44:04;;;;;;;18.47;12.53;;;16.30;99.90;;;;;;5037962;28;20468;-88
2021/09/06 01:46:32;;;;;;;15.17;12.03;;;16.20;99.90;;;;;;5060797;28;20488;-89
2021/09/06 01:49:00;;;;;;;19.73;11.77;;;16.20;99.90;;;;;;5048233;28;20449;-89
2021/09/06 01:51:28;;;;;;;19.27;12.20;;;16.20;99.90;;;;;;5045794;28;20460;-88
2021/09/06 01:53:56;;;;;;;14.93;11.90;;;16.30;99.90;;;;;;5036532;28;20477;-89
2021/09/06 01:56:23;;;;;;;14.03;12.50;;;16.30;99.90;;;;;;5057121;28;20441;-89
2021/09/06 01:58:53;;;;;;;15.73;11.30;;;16.30;99.90;;;;;;5044468;28;20465;-88
2021/09/06 02:01:21;;;;;;;14.60;11.93;;;16.20;99.90;;;;;;5038062;28;20544;-89
2021/09/06 02:03:48;;;;;;;16.27;12.27;;;16.20;99.90;;;;;;5036076;28;20481;-88
2021/09/06 02:06:16;;;;;;;17.10;13.10;;;16.10;99.90;;;;;;5035464;28;20955;-89
2021/09/06 02:08:42;;;;;;;15.40;12.13;;;16.00;99.90;;;;;;5039730;28;20449;-88
2021/09/06 02:11:09;;;;;;;17.77;13.27;;;16.00;99.90;;;;;;5044078;28;20448;-89
2021/09/06 02:13:36;;;;;;;16.67;12.60;;;15.90;99.90;;;;;;5059213;28;20528;-89
2021/09/06 02:16:03;;;;;;;18.43;12.67;;;15.90;99.90;;;;;;5054545;28;20459;-89
2021/09/06 02:18:31;;;;;;;15.73;12.03;;;15.80;99.90;;;;;;5057964;28;20467;-90
2021/09/06 02:20:58;;;;;;;16.60;13.43;;;15.80;99.90;;;;;;5047102;28;20446;-87
2021/09/06 02:23:26;;;;;;;13.20;11.33;;;15.80;99.90;;;;;;5038473;28;20441;-86
2021/09/06 02:25:53;;;;;;;23.73;11.33;;;15.80;99.90;;;;;;5051019;28;20461;-87
2021/09/06 02:28:20;;;;;;;17.80;12.13;;;15.80;99.90;;;;;;5038848;28;20453;-87
2021/09/06 02:30:48;;;;;;;19.97;13.10;;;15.80;99.90;;;;;;5038958;28;20452;-86
2021/09/06 02:33:15;;;;;;;14.70;12.23;;;15.60;99.90;;;;;;5039913;28;20987;-87
2021/09/06 02:35:43;;;;;;;15.07;11.57;;;15.60;99.90;;;;;;5035566;28;20453;-87
2021/09/06 02:38:10;;;;;;;13.57;10.93;;;15.60;99.90;;;;;;5034566;28;20453;-87
2021/09/06 02:40:37;;;;;;;14.97;11.80;;;15.60;99.90;;;;;;5035907;28;20818;-88
2021/09/06 02:43:04;;;;;;;15.47;11.80;;;15.60;99.90;;;;;;5035400;28;20507;-88
2021/09/06 02:45:31;;;;;;;12.97;11.40;;;15.60;99.90;;;;;;5035697;28;20454;-87
2021/09/06 02:47:58;;;;;;;12.20;11.00;;;15.50;99.90;;;;;;5035265;28;20453;-86
2021/09/06 02:50:24;;;;;;;12.70;11.40;;;15.50;99.90;;;;;;5036982;28;20445;-87
2021/09/06 02:52:53;;;;;;;12.83;11.40;;;15.50;99.90;;;;;;5057287;28;20449;-86
2021/09/06 02:55:20;;;;;;;12.53;10.30;;;15.40;99.90;;;;;;5051578;28;20449;-87
2021/09/06 02:57:46;;;;;;;12.73;11.30;;;15.40;99.90;;;;;;5042881;28;20453;-88
2021/09/06 03:00:14;;;;;;;12.73;10.70;;;15.40;99.90;;;;;;5054834;28;20479;-88
2021/09/06 03:02:41;;;;;;;13.00;11.70;;;15.40;99.90;;;;;;5035503;28;20476;-87
2021/09/06 03:05:09;;;;;;;12.53;11.33;;;15.40;99.90;;;;;;5035393;28;20456;-87
2021/09/06 03:07:36;;;;;;;19.03;11.70;;;15.40;99.90;;;;;;5036613;28;20445;-87
2021/09/06 03:10:04;;;;;;;13.43;10.53;;;15.30;99.90;;;;;;5035182;28;20943;-87
2021/09/06 03:12:32;;;;;;;11.73;10.63;;;15.30;99.90;;;;;;5037775;28;21073;-87
2021/09/06 03:14:59;;;;;;;11.87;10.73;;;15.20;99.90;;;;;;5047113;28;20499;-87
2021/09/06 03:17:26;;;;;;;13.60;12.23;;;15.10;99.90;;;;;;5039476;28;20437;-87
2021/09/06 03:19:53;;;;;;;13.40;12.00;;;14.90;99.90;;;;;;5034316;28;20566;-87
2021/09/06 03:22:20;;;;;;;12.73;11.43;;;14.90;99.90;;;;;;5034774;28;20477;-87
2021/09/06 03:24:47;;;;;;;13.67;12.47;;;15.00;99.90;;;;;;5037093;28;20841;-87
2021/09/06 03:27:16;;;;;;;15.70;12.43;;;15.00;99.90;;;;;;5034431;28;20451;-86
2021/09/06 03:29:43;;;;;;;14.37;12.90;;;15.00;99.90;;;;;;5039532;28;20886;-85
2021/09/06 03:32:11;;;;;;;14.33;11.83;;;15.10;99.90;;;;;;5058240;28;20448;-86
2021/09/06 03:34:38;;;;;;;15.73;13.17;;;15.00;99.90;;;;;;5044291;28;20499;-87
2021/09/06 03:37:05;;;;;;;12.67;11.50;;;15.00;99.90;;;;;;5034641;28;20950;-86
2021/09/06 03:39:32;;;;;;;12.30;11.10;;;14.90;99.90;;;;;;5034608;28;20487;-87
2021/09/06 03:42:01;;;;;;;14.40;12.70;;;15.00;99.90;;;;;;5035884;28;20453;-86
2021/09/06 03:44:29;;;;;;;14.63;13.03;;;15.00;99.90;;;;;;5046951;28;20505;-86
2021/09/06 03:46:56;;;;;;;14.70;12.53;;;14.90;99.90;;;;;;5048519;28;20444;-86
2021/09/06 03:49:23;;;;;;;14.80;12.57;;;14.80;99.90;;;;;;5051061;28;20536;-87
2021/09/06 03:51:50;;;;;;;15.30;13.07;;;14.70;99.90;;;;;;5052078;28;20413;-87
2021/09/06 03:54:17;;;;;;;13.93;12.43;;;14.70;99.90;;;;;;5053840;28;20498;-86
2021/09/06 03:56:44;;;;;;;14.10;12.63;;;14.70;99.90;;;;;;5047033;28;20452;-86
2021/09/06 03:59:11;;;;;;;14.50;12.07;;;14.70;99.90;;;;;;5037978;28;20482;-86
2021/09/06 04:01:40;;;;;;;14.17;12.90;;;14.70;99.90;;;;;;5052847;28;20475;-86
2021/09/06 04:04:07;;;;;;;15.50;13.20;;;14.70;99.90;;;;;;5039720;28;20473;-87
2021/09/06 04:06:34;;;;;;;13.37;12.07;;;14.70;99.90;;;;;;5034775;28;20463;-87
2021/09/06 04:09:01;;;;;;;14.07;12.67;;;14.60;99.90;;;;;;5034328;28;20495;-87
2021/09/06 04:11:28;;;;;;;18.07;12.87;;;14.60;99.90;;;;;;5034209;28;20466;-87
2021/09/06 04:13:55;;;;;;;15.27;11.30;;;14.60;99.90;;;;;;5033557;28;20843;-87
2021/09/06 04:16:25;;;;;;;15.13;12.37;;;14.50;99.90;;;;;;5033642;28;20461;-86
2021/09/06 04:18:54;;;;;;;15.00;12.40;;;14.50;99.90;;;;;;5038736;28;20451;-87
2021/09/06 04:21:21;;;;;;;17.60;13.00;;;14.50;99.90;;;;;;5033751;28;20456;-87
2021/09/06 04:23:48;;;;;;;15.87;12.37;;;14.40;99.90;;;;;;5038853;28;20478;-86
2021/09/06 04:26:15;;;;;;;18.30;14.07;;;14.40;99.90;;;;;;5046226;28;20502;-87
2021/09/06 04:28:42;;;;;;;17.30;13.37;;;14.40;99.90;;;;;;5057511;28;20498;-85
2021/09/06 04:31:09;;;;;;;15.07;13.67;;;14.30;99.90;;;;;;5054927;28;20454;-86
2021/09/06 04:33:36;;;;;;;19.43;13.10;;;14.30;99.90;;;;;;5055882;28;20497;-88
2021/09/06 04:36:08;;;;;;;16.63;13.97;;;14.40;99.90;;;;;;5039632;28;20466;-87
2021/09/06 04:38:36;;;;;;;14.20;12.90;;;14.40;99.90;;;;;;5051530;28;20483;-87
2021/09/06 04:41:03;;;;;;;14.40;13.00;;;14.40;99.90;;;;;;5037443;28;20512;-87
2021/09/06 04:43:30;;;;;;;14.43;12.93;;;14.30;99.90;;;;;;5043787;28;20483;-88
2021/09/06 04:45:57;;;;;;;15.77;13.60;;;14.40;99.90;;;;;;5040261;28;20484;-88
2021/09/06 04:48:24;;;;;;;18.23;13.70;;;14.30;99.90;;;;;;5039653;28;20514;-87
2021/09/06 04:50:51;;;;;;;18.50;13.90;;;14.40;99.90;;;;;;5037208;28;20534;-88
2021/09/06 04:53:20;;;;;;;17.23;12.80;;;14.40;99.90;;;;;;5046672;28;20456;-87
2021/09/06 04:55:47;;;;;;;27.40;14.43;;;14.40;99.90;;;;;;5044582;28;20452;-87
2021/09/06 04:58:13;;;;;;;17.20;14.10;;;14.30;99.90;;;;;;5038735;28;20472;-87
2021/09/06 05:00:40;;;;;;;21.43;13.33;;;14.40;99.90;;;;;;5055412;28;20510;-89
2021/09/06 05:03:07;;;;;;;15.03;13.53;;;14.40;99.90;;;;;;5044820;28;20476;-88
2021/09/06 05:05:34;;;;;;;14.63;13.00;;;14.30;99.90;;;;;;5037172;28;20453;-88
2021/09/06 05:08:01;;;;;;;16.30;13.67;;;14.30;99.90;;;;;;5037529;28;20485;-88
2021/09/06 05:10:31;;;;;;;14.70;13.30;;;14.30;99.90;;;;;;5036864;28;20511;-88
2021/09/06 05:12:58;;;;;;;15.70;14.10;;;14.40;99.90;;;;;;5037421;28;20478;-87
2021/09/06 05:15:25;;;;;;;15.37;13.77;;;14.40;99.90;;;;;;5037691;28;20511;-88
2021/09/06 05:17:55;;;;;;;15.77;14.00;;;14.40;99.90;;;;;;5059604;28;20468;-87
2021/09/06 05:20:22;;;;;;;16.40;14.70;;;14.40;99.90;;;;;;5044821;28;20479;-87
2021/09/06 05:22:50;;;;;;;20.63;14.90;;;14.50;99.90;;;;;;5038402;28;20483;-88
2021/09/06 05:25:17;;;;;;;16.53;14.00;;;14.40;99.90;;;;;;5036971;28;20447;-87
2021/09/06 05:27:45;;;;;;;15.57;13.93;;;14.50;99.90;;;;;;5039139;28;20455;-85
2021/09/06 05:30:13;;;;;;;18.77;15.13;;;14.60;99.90;;;;;;5040978;28;20450;-85
2021/09/06 05:32:40;;;;;;;17.80;15.30;;;14.60;99.90;;;;;;5051124;23;20552;-88
2021/09/06 05:35:07;;;;;;;21.03;15.17;;;14.60;99.90;;;;;;5037692;28;20815;-87
2021/09/06 05:37:34;;;;;;;18.17;15.10;;;14.70;99.90;;;;;;5038270;28;20446;-87
2021/09/06 05:40:02;;;;;;;18.87;15.27;;;14.70;99.90;;;;;;5036663;28;20487;-88
2021/09/06 05:42:29;;;;;;;16.97;15.10;;;14.80;99.90;;;;;;5036352;28;20976;-88
2021/09/06 05:44:57;;;;;;;18.63;15.73;;;14.80;99.90;;;;;;5036238;28;20446;-87
2021/09/06 05:47:24;;;;;;;16.50;14.80;;;14.80;99.90;;;;;;5036485;28;20969;-87
2021/09/06 05:49:50;;;;;;;19.50;16.53;;;14.80;99.90;;;;;;5046224;28;20443;-86
2021/09/06 05:52:17;;;;;;;20.13;16.37;;;14.90;99.90;;;;;;5052447;28;20446;-88
2021/09/06 05:54:44;;;;;;;17.10;15.20;;;14.90;99.90;;;;;;5053948;28;20475;-86
2021/09/06 05:57:11;;;;;;;15.53;13.10;;;14.80;99.90;;;;;;5038432;28;20447;-87
2021/09/06 05:59:37;;;;;;;16.77;14.13;;;14.80;99.90;;;;;;5036096;28;20496;-87
2021/09/06 06:02:06;;;;;;;15.43;13.37;;;14.90;99.90;;;;;;5036926;28;20976;-87
2021/09/06 06:04:32;;;;;;;16.00;14.30;;;14.90;99.90;;;;;;5035120;28;20482;-85
2021/09/06 06:06:59;;;;;;;19.80;15.47;;;14.90;99.90;;;;;;5036335;28;20449;-86
2021/09/06 06:09:26;;;;;;;18.23;16.27;;;15.00;99.90;;;;;;5035625;28;20458;-86
2021/09/06 06:11:53;;;;;;;16.13;14.47;;;15.10;99.90;;;;;;5035867;28;20441;-85
2021/09/06 06:14:20;;;;;;;16.63;14.50;;;15.20;99.90;;;;;;5043786;28;20445;-85
2021/09/06 06:16:47;;;;;;;20.37;14.80;;;15.30;99.90;;;;;;5059650;28;20462;-86
2021/09/06 06:19:15;;;;;;;19.93;16.30;;;15.30;99.90;;;;;;5047987;28;20448;-87
2021/09/06 06:21:41;;;;;;;17.27;15.40;;;15.40;99.90;;;;;;5054716;28;20452;-86
2021/09/06 06:24:08;;;;;;;17.67;15.30;;;15.50;99.90;;;;;;5038113;28;20468;-87
2021/09/06 06:26:35;;;;;;;19.97;16.17;;;15.50;99.90;;;;;;5036690;28;20469;-86
2021/09/06 06:29:01;;;;;;;16.73;15.00;;;15.60;99.90;;;;;;5035756;28;20454;-87
2021/09/06 06:31:28;;;;;;;17.30;15.63;;;15.60;99.90;;;;;;5035501;28;20485;-87
2021/09/06 06:33:55;;;;;;;15.87;14.30;;;15.70;99.90;;;;;;5040685;28;20485;-86
2021/09/06 06:36:23;;;;;;;18.33;15.10;;;15.70;99.90;;;;;;5042998;28;20452;-87
2021/09/06 06:38:50;;;;;;;17.87;14.53;;;15.80;99.90;;;;;;5042367;28;20456;-86
2021/09/06 06:41:17;;;;;;;17.80;13.73;;;15.90;99.90;;;;;;5040811;28;20947;-87
2021/09/06 06:43:44;;;;;;;21.03;15.57;;;16.00;99.90;;;;;;5040283;28;20465;-87
2021/09/06 06:46:11;;;;;;;16.60;15.00;;;16.00;99.90;;;;;;5036534;28;20507;-87
2021/09/06 06:48:39;;;;;;;16.50;14.90;;;16.10;99.90;;;;;;5052567;28;20447;-86
2021/09/06 06:51:05;;;;;;;16.83;15.20;;;16.20;99.90;;;;;;5053077;28;21033;-87
2021/09/06 06:53:33;;;;;;;19.40;15.40;;;16.30;99.90;;;;;;5040647;28;20454;-87
2021/09/06 06:56:01;;;;;;;16.87;14.97;;;16.40;99.90;;;;;;5039139;28;20441;-87
2021/09/06 06:58:29;;;;;;;16.37;14.67;;;16.60;99.90;;;;;;5039737;28;20442;-86
2021/09/06 07:00:57;;;;;;;17.87;14.00;;;16.70;99.90;;;;;;5041294;28;20445;-87
2021/09/06 07:03:24;;;;;;;18.03;15.17;;;16.80;99.90;;;;;;5040932;28;20488;-86
2021/09/06 07:05:50;;;;;;;16.00;13.27;;;17.00;99.90;;;;;;5039552;28;20452;-87
2021/09/06 07:08:17;;;;;;;15.93;14.43;;;17.20;99.90;;;;;;5040267;28;20971;-86
2021/09/06 07:10:45;;;;;;;15.33;13.83;;;17.30;99.90;;;;;;5039369;28;20487;-87
2021/09/06 07:13:13;;;;;;;15.73;13.77;;;17.40;99.90;;;;;;5053389;28;20449;-86
2021/09/06 07:15:41;;;;;;;13.43;12.00;;;17.60;99.90;;;;;;5053135;28;20488;-87
2021/09/06 07:18:08;;;;;;;13.23;11.97;;;18.20;99.90;;;;;;5053246;28;20452;-86
2021/09/06 07:20:36;;;;;;;13.57;12.27;;;19.60;99.90;;;;;;5054361;28;20442;-87
2021/09/06 07:23:04;;;;;;;12.33;11.10;;;21.00;99.90;;;;;;5056628;28;20482;-87
2021/09/06 07:25:31;;;;;;;13.63;12.23;;;22.10;99.90;;;;;;5058390;28;20487;-87
2021/09/06 07:27:59;;;;;;;13.10;12.00;;;21.80;98.50;;;;;;5057717;28;20421;-87
2021/09/06 07:30:27;;;;;;;14.20;12.90;;;21.50;98.80;;;;;;5050921;28;20838;-87
2021/09/06 07:32:56;;;;;;;16.60;13.30;;;21.70;98.60;;;;;;5053616;28;20536;-87
2021/09/06 07:35:23;;;;;;;13.30;12.00;;;22.50;97.50;;;;;;5052689;28;20451;-87
2021/09/06 07:37:50;;;;;;;18.60;13.23;;;22.90;96.00;;;;;;5054256;28;20454;-85
2021/09/06 07:40:16;;;;;;;13.50;12.10;;;22.40;95.60;;;;;;5051367;28;20439;-85
2021/09/06 07:42:44;;;;;;;14.17;12.70;;;22.00;96.30;;;;;;5043013;28;20480;-85
2021/09/06 07:45:12;;;;;;;12.60;11.30;;;21.60;96.60;;;;;;5033878;28;20447;-85
2021/09/06 07:47:39;;;;;;;11.70;10.70;;;21.30;97.20;;;;;;5035630;28;20503;-86
2021/09/06 07:50:08;;;;;;;12.03;10.27;;;21.30;97.00;;;;;;5035876;28;20453;-87
2021/09/06 07:52:35;;;;;;;14.63;12.13;;;21.40;97.20;;;;;;5041236;28;20426;-86
2021/09/06 07:55:02;;;;;;;12.50;11.20;;;22.00;97.10;;;;;;5048011;28;20445;-87
2021/09/06 07:57:29;;;;;;;12.57;11.27;;;22.20;96.40;;;;;;5035000;28;20477;-86
2021/09/06 07:59:56;;;;;;;13.60;11.40;;;22.00;96.40;;;;;;5043597;28;20454;-86
2021/09/06 08:02:24;;;;;;;10.70;9.70;;;21.80;96.00;;;;;;5057994;28;20503;-86
2021/09/06 08:04:51;;;;;;;14.77;11.47;;;21.70;96.40;;;;;;5056966;28;20439;-86
2021/09/06 08:07:17;;;;;;;11.70;10.60;;;21.50;96.80;;;;;;5054949;28;20431;-86
2021/09/06 08:09:44;;;;;;;13.40;11.87;;;21.40;97.40;;;;;;5047957;28;20490;-86
2021/09/06 08:12:11;;;;;;;13.33;11.23;;;21.60;96.60;;;;;;5040306;28;20482;-86
2021/09/06 08:14:38;;;;;;;13.73;11.90;;;21.50;96.10;;;;;;5037887;28;20467;-87
2021/09/06 08:17:06;;;;;;;11.33;10.13;;;21.60;95.90;;;;;;5038677;28;21005;-86
2021/09/06 08:19:34;;;;;;;11.70;9.93;;;21.50;95.90;;;;;;5037297;28;20902;-87
2021/09/06 08:22:01;;;;;;;12.37;11.10;;;21.40;95.90;;;;;;5037691;28;20968;-86
2021/09/06 08:24:27;;;;;;;11.03;10.03;;;21.40;95.80;;;;;;5035617;28;20470;-87
2021/09/06 08:26:55;;;;;;;12.60;10.93;;;21.60;96.20;;;;;;5034797;28;20454;-86
2021/09/06 08:29:22;;;;;;;20.60;11.07;;;21.90;95.60;;;;;;5034945;28;20444;-87
2021/09/06 08:31:49;;;;;;;9.67;8.67;;;22.20;95.40;;;;;;5036543;28;20497;-86
2021/09/06 08:34:16;;;;;;;11.00;9.90;;;22.40;94.90;;;;;;5033143;28;20485;-86
2021/09/06 08:36:45;;;;;;;10.77;9.67;;;22.90;94.20;;;;;;5032894;28;20542;-86
2021/09/06 08:39:11;;;;;;;11.80;9.87;;;23.30;93.80;;;;;;5033595;28;20506;-86
2021/09/06 08:41:38;;;;;;;10.37;9.37;;;24.40;92.60;;;;;;5032971;28;20441;-86
2021/09/06 08:44:05;;;;;;;13.67;10.90;;;25.80;90.20;;;;;;5032799;28;20465;-86
2021/09/06 08:46:32;;;;;;;12.13;10.90;;;27.20;84.60;;;;;;5053465;28;20428;-86
2021/09/06 08:48:59;;;;;;;13.33;9.33;;;29.40;74.20;;;;;;5042438;28;20444;-87
2021/09/06 08:51:25;;;;;;;11.33;10.20;;;31.10;66.10;;;;;;5033808;28;20485;-87
2021/09/06 08:53:53;;;;;;;13.20;10.00;;;31.20;60.90;;;;;;5032958;28;20885;-87
2021/09/06 08:56:21;;;;;;;10.30;9.40;;;31.20;60.10;;;;;;5033420;28;20457;-87
2021/09/06 08:58:48;;;;;;;10.80;9.80;;;32.70;57.50;;;;;;5032448;28;20571;-86
2021/09/06 09:01:15;;;;;;;9.23;8.30;;;33.40;57.40;;;;;;5032637;28;20804;-87
2021/09/06 09:03:44;;;;;;;11.03;9.90;;;34.40;54.80;;;;;;5032557;28;20987;-87
2021/09/06 09:06:10;;;;;;;11.40;9.97;;;35.10;52.00;;;;;;5033469;28;20445;-87
2021/09/06 09:08:39;;;;;;;10.77;9.93;;;35.40;50.60;;;;;;5033045;28;20825;-87
2021/09/06 09:11:08;;;;;;;10.20;9.37;;;36.70;48.80;;;;;;5053499;28;20483;-87
2021/09/06 09:13:38;;;;;;;9.40;8.70;;;38.00;46.40;;;;;;5042369;28;20461;-88
2021/09/06 09:16:07;;;;;;;9.03;8.13;;;38.90;44.70;;;;;;5043622;28;20456;-87
2021/09/06 09:18:35;;;;;;;10.50;9.30;;;39.60;42.40;;;;;;5054651;28;20421;-87
2021/09/06 09:21:04;;;;;;;9.50;8.67;;;39.50;41.70;;;;;;5051048;28;20445;-87
2021/09/06 09:23:43;;;;;;;10.87;9.97;;;39.10;41.00;;;;;;5052818;28;20483;-87
2021/09/06 09:26:13;;;;;;;11.33;10.43;;;38.30;41.30;;;;;;5039007;28;20502;-87
2021/09/06 09:28:41;;;;;;;9.70;8.87;;;38.30;41.40;;;;;;5034345;28;20456;-87
2021/09/06 09:31:09;;;;;;;10.53;9.57;;;38.40;41.50;;;;;;5036893;28;20867;-87
2021/09/06 09:33:44;;;;;;;9.50;8.70;;;38.80;41.10;;;;;;5037544;28;20471;-87
2021/09/06 09:36:11;;;;;;;9.73;9.03;;;40.20;39.80;;;;;;5035972;28;20447;-87
2021/09/06 09:38:39;;;;;;;11.60;10.20;;;40.80;38.20;;;;;;5036252;28;20749;-87
2021/09/06 09:41:17;;;;;;;9.93;8.90;;;38.80;40.20;;;;;;5035647;28;20528;-88
2021/09/06 09:43:44;;;;;;;9.67;8.93;;;38.90;40.40;;;;;;5036221;28;20480;-87
2021/09/06 09:46:11;;;;;;;9.97;9.17;;;39.90;39.20;;;;;;5041112;28;20452;-87
2021/09/06 09:48:38;;;;;;;10.50;9.70;;;41.30;38.00;;;;;;5058956;28;20457;-87
2021/09/06 09:51:04;;;;;;;9.67;8.97;;;42.40;35.90;;;;;;5059758;28;20469;-87
2021/09/06 09:53:32;;;;;;;8.97;8.17;;;42.40;35.00;;;;;;5048055;28;20465;-87
2021/09/06 09:55:59;;;;;;;11.83;10.00;;;43.00;34.30;;;;;;5038137;28;20449;-87
2021/09/06 09:58:27;;;;;;;10.57;9.67;;;43.40;33.60;;;;;;5036506;28;20475;-87
2021/09/06 10:00:56;;;;;;;9.43;8.53;;;42.20;34.10;;;;;;5036266;28;20441;-87
2021/09/06 10:03:25;;;;;;;9.40;8.60;;;42.50;33.30;;;;;;5036021;28;20983;-87
2021/09/06 10:05:52;;;;;;;9.20;8.40;;;42.90;32.80;;;;;;5036927;28;20445;-87
2021/09/06 10:08:19;;;;;;;9.23;8.50;;;42.70;32.10;;;;;;5036812;28;20586;-87
2021/09/06 10:10:47;;;;;;;8.83;8.23;;;43.20;32.50;;;;;;5036526;28;20472;-87
2021/09/06 10:13:15;;;;;;;8.80;8.10;;;43.20;33.00;;;;;;5035973;28;20467;-87
2021/09/06 10:15:44;;;;;;;9.97;8.90;;;43.20;32.70;;;;;;5035853;28;20445;-87
2021/09/06 10:18:15;;;;;;;9.57;8.67;;;42.50;33.10;;;;;;5035784;28;20536;-87
2021/09/06 10:20:42;;;;;;;9.73;9.00;;;42.10;33.10;;;;;;5044034;28;20983;-87
2021/09/06 10:23:11;;;;;;;12.60;11.30;;;42.60;33.50;;;;;;5035313;28;20991;-87
2021/09/06 10:25:40;;;;;;;9.90;9.10;;;43.40;31.70;;;;;;5035536;28;20480;-87
2021/09/06 10:28:08;;;;;;;10.00;8.67;;;43.30;31.40;;;;;;5035176;28;20456;-87
2021/09/06 10:30:37;;;;;;;9.47;8.67;;;41.70;33.10;;;;;;5037744;28;20454;-87
2021/09/06 10:33:07;;;;;;;9.37;8.50;;;41.60;32.20;;;;;;5034881;28;20473;-87
2021/09/06 10:35:35;;;;;;;8.70;8.10;;;42.00;32.30;;;;;;5043350;28;20580;-87
2021/09/06 10:38:05;;;;;;;7.77;7.13;;;42.30;31.20;;;;;;5047086;28;20533;-87
2021/09/06 10:40:34;;;;;;;8.83;8.03;;;42.10;31.00;;;;;;5035287;28;20437;-87
2021/09/06 10:43:12;;;;;;;8.60;7.90;;;42.20;32.00;;;;;;5035748;28;20836;-87
2021/09/06 10:45:39;;;;;;;9.07;8.27;;;42.70;31.00;;;;;;5035986;28;20429;-87
2021/09/06 10:48:08;;;;;;;7.80;7.30;;;42.90;29.80;;;;;;5035647;28;20452;-87
2021/09/06 10:50:37;;;;;;;8.80;8.10;;;42.20;30.30;;;;;;5038465;28;20499;-87
2021/09/06 10:53:04;;;;;;;8.20;7.63;;;41.20;31.50;;;;;;5034624;28;20484;-87
2021/09/06 10:55:31;;;;;;;27.90;14.30;;;40.80;32.30;;;;;;5035052;28;20453;-87
2021/09/06 10:57:59;;;;;;;8.60;7.83;;;39.30;34.00;;;;;;5034921;28;20449;-87
2021/09/06 11:00:26;;;;;;;8.63;7.93;;;39.70;34.10;;;;;;5034698;28;20553;-86
2021/09/06 11:02:53;;;;;;;8.53;7.90;;;40.10;32.50;;;;;;5034806;28;20931;-86
2021/09/06 11:05:23;;;;;;;8.53;7.90;;;37.50;35.30;;;;;;5037213;28;20484;-86
2021/09/06 11:07:50;;;;;;;8.97;8.10;;;36.60;37.10;;;;;;5058018;28;20432;-86
2021/09/06 11:10:19;;;;;;;9.07;8.37;;;35.50;37.90;;;;;;5044494;28;20441;-86
2021/09/06 11:12:55;;;;;;;9.30;8.60;;;34.70;39.50;;;;;;5047435;28;20489;-87
2021/09/06 11:15:26;;;;;;;8.80;8.10;;;34.30;40.90;;;;;;5034829;28;20502;-86
2021/09/06 11:17:57;;;;;;;10.47;9.67;;;34.10;40.80;;;;;;5034089;28;20460;-86
2021/09/06 11:20:25;;;;;;;8.97;8.27;;;33.50;42.10;;;;;;5034364;28;20453;-86
2021/09/06 11:22:52;;;;;;;9.90;9.10;;;32.90;42.30;;;;;;5034810;28;20498;-86
2021/09/06 11:25:25;;;;;;;8.90;8.10;;;33.20;42.30;;;;;;5033996;28;20823;-86
2021/09/06 11:27:52;;;;;;;9.47;8.67;;;35.60;39.60;;;;;;5036189;28;20456;-86
2021/09/06 11:30:23;;;;;;;9.30;8.60;;;37.20;37.60;;;;;;5037974;28;20452;-86
2021/09/06 11:32:51;;;;;;;9.63;8.47;;;38.30;36.10;;;;;;5037080;28;20489;-87
2021/09/06 11:35:28;;;;;;;9.23;8.43;;;39.80;34.10;;;;;;5079332;23;20592;-86
2021/09/06 11:38:13;;;;;;;8.50;7.90;;;40.90;32.50;;;;;;5037392;28;20502;-87
2021/09/06 11:41:07;;;;;;;8.20;7.60;;;41.00;31.50;;;;;;5038095;28;20432;-88
2021/09/06 11:43:36;;;;;;;7.90;7.40;;;41.70;31.40;;;;;;5028024;28;20469;-86
2021/09/06 11:46:16;;;;;;;7.83;7.33;;;42.10;30.00;;;;;;5037101;28;20455;-89
2021/09/06 11:48:49;;;;;;;9.00;8.30;;;42.10;30.00;;;;;;5037479;28;20422;-87
2021/09/06 11:51:48;;;;;;;9.10;8.40;;;42.00;30.50;;;;;;5037321;28;20453;-88
2021/09/06 11:54:23;;;;;;;8.33;7.63;;;42.60;29.70;;;;;;5040380;28;20476;-88
2021/09/06 11:57:02;;;;;;;7.93;7.37;;;42.50;28.20;;;;;;5035921;28;20456;-87
2021/09/06 12:00:20;;;;;;;9.03;8.33;;;43.00;28.90;;;;;;5041027;28;20532;-87
2021/09/06 12:03:03;;;;;;;8.37;7.67;;;42.00;29.60;;;;;;5048796;28;20491;-88
2021/09/06 12:05:51;;;;;;;8.00;7.30;;;41.30;29.70;;;;;;5047823;28;20453;-87
2021/09/06 12:08:35;;;;;;;8.00;7.40;;;41.20;30.10;;;;;;5046559;28;20482;-87
2021/09/06 12:11:10;;;;;;;9.20;8.27;;;41.10;29.70;;;;;;5046186;28;20460;-86
2021/09/06 12:13:40;;;;;;;9.67;8.87;;;39.30;30.80;;;;;;5045931;28;20983;-87
2021/09/06 12:16:40;;;;;;;9.03;8.33;;;37.50;33.60;;;;;;5045975;28;20434;-86
2021/09/06 12:29:58;;;;;;;8.10;7.40;;;32.50;41.10;;;;;;4964831;28;20457;-88
2021/09/06 12:32:27;;;;;;;8.40;7.60;;;34.40;39.40;;;;;;4933080;29;20445;-88
2021/09/06 12:34:54;;;;;;;9.10;8.30;;;35.60;37.90;;;;;;5005320;28;20528;-88
2021/09/06 12:37:23;;;;;;;8.33;7.73;;;36.10;37.30;;;;;;5012887;28;20528;-86
2021/09/06 12:39:49;;;;;;;9.43;8.63;;;35.30;37.60;;;;;;5031915;28;20457;-89
2021/09/06 12:42:18;;;;;;;9.40;8.77;;;35.00;38.30;;;;;;5027258;28;20489;-89
2021/09/06 12:44:47;;;;;;;8.80;8.10;;;34.70;38.40;;;;;;5017216;28;20475;-89
2021/09/06 12:47:16;;;;;;;8.47;7.67;;;36.20;37.20;;;;;;5016118;28;20434;-87
2021/09/06 12:49:45;;;;;;;7.80;7.20;;;37.90;34.60;;;;;;5015755;28;20837;-88